sensor_id;sensor_type;location;lat;lon;timestamp;temperature;humidity
21682;DHT22;11002;48.256;10.084;2023-05-17T00:02:04;9.20;48.30
21682;DHT22;11002;48.256;10.084;2023-05-17T00:04:33;9.00;48.20
21682;DHT22;11002;48.256;10.084;2023-05-17T00:07:00;9.10;47.70
21682;DHT22;11002;48.256;10.084;2023-05-17T00:09:27;9.00;47.80
21682;DHT22;11002;48.256;10.084;2023-05-17T00:11:55;9.30;47.20
21682;DHT22;11002;48.256;10.084;2023-05-17T00:14:22;9.00;47.90
21682;DHT22;11002;48.256;10.084;2023-05-17T00:16:49;9.00;49.10
21682;DHT22;11002;48.256;10.084;2023-05-17T00:19:17;9.10;49.50
21682;DHT22;11002;48.256;10.084;2023-05-17T00:21:46;9.00;49.00
21682;DHT22;11002;48.256;10.084;2023-05-17T00:24:13;9.10;48.20
21682;DHT22;11002;48.256;10.084;2023-05-17T00:26:40;9.20;47.60
21682;DHT22;11002;48.256;10.084;2023-05-17T00:29:07;9.00;47.20
21682;DHT22;11002;48.256;10.084;2023-05-17T00:31:35;8.80;47.50
21682;DHT22;11002;48.256;10.084;2023-05-17T00:34:02;8.90;47.60
21682;DHT22;11002;48.256;10.084;2023-05-17T00:36:29;9.00;48.80
21682;DHT22;11002;48.256;10.084;2023-05-17T00:38:58;8.80;48.60
21682;DHT22;11002;48.256;10.084;2023-05-17T00:41:25;8.90;47.50
21682;DHT22;11002;48.256;10.084;2023-05-17T00:43:52;8.90;48.20
21682;DHT22;11002;48.256;10.084;2023-05-17T00:46:20;8.80;48.10
21682;DHT22;11002;48.256;10.084;2023-05-17T00:48:48;8.80;47.80
21682;DHT22;11002;48.256;10.084;2023-05-17T00:51:18;8.80;49.00
21682;DHT22;11002;48.256;10.084;2023-05-17T00:53:46;8.90;49.40
21682;DHT22;11002;48.256;10.084;2023-05-17T00:56:15;8.70;48.20
21682;DHT22;11002;48.256;10.084;2023-05-17T00:58:43;8.90;48.50
21682;DHT22;11002;48.256;10.084;2023-05-17T01:01:10;8.60;47.00
21682;DHT22;11002;48.256;10.084;2023-05-17T01:03:38;8.80;48.50
21682;DHT22;11002;48.256;10.084;2023-05-17T01:06:05;8.60;49.70
21682;DHT22;11002;48.256;10.084;2023-05-17T01:08:34;8.70;50.60
21682;DHT22;11002;48.256;10.084;2023-05-17T01:11:09;8.70;50.20
21682;DHT22;11002;48.256;10.084;2023-05-17T01:13:45;8.60;52.00
21682;DHT22;11002;48.256;10.084;2023-05-17T01:16:17;8.70;51.20
21682;DHT22;11002;48.256;10.084;2023-05-17T01:18:53;8.70;52.10
21682;DHT22;11002;48.256;10.084;2023-05-17T01:21:34;8.70;52.10
21682;DHT22;11002;48.256;10.084;2023-05-17T01:24:24;8.70;50.80
21682;DHT22;11002;48.256;10.084;2023-05-17T01:26:55;8.60;51.70
21682;DHT22;11002;48.256;10.084;2023-05-17T01:29:27;8.60;52.00
21682;DHT22;11002;48.256;10.084;2023-05-17T01:31:55;8.40;50.50
21682;DHT22;11002;48.256;10.084;2023-05-17T01:34:24;8.60;49.70
21682;DHT22;11002;48.256;10.084;2023-05-17T01:36:52;8.70;50.90
21682;DHT22;11002;48.256;10.084;2023-05-17T01:39:19;8.60;49.20
21682;DHT22;11002;48.256;10.084;2023-05-17T01:41:53;8.60;49.60
21682;DHT22;11002;48.256;10.084;2023-05-17T01:44:27;8.60;49.20
21682;DHT22;11002;48.256;10.084;2023-05-17T01:47:01;8.70;49.70
21682;DHT22;11002;48.256;10.084;2023-05-17T01:49:37;8.60;49.30
21682;DHT22;11002;48.256;10.084;2023-05-17T01:52:08;8.40;49.90
21682;DHT22;11002;48.256;10.084;2023-05-17T01:54:42;8.50;50.90
21682;DHT22;11002;48.256;10.084;2023-05-17T01:57:14;8.50;50.60
21682;DHT22;11002;48.256;10.084;2023-05-17T01:59:44;8.40;49.70
21682;DHT22;11002;48.256;10.084;2023-05-17T02:02:12;8.50;49.60
21682;DHT22;11002;48.256;10.084;2023-05-17T02:04:40;8.40;48.80
21682;DHT22;11002;48.256;10.084;2023-05-17T02:07:07;8.30;48.40
21682;DHT22;11002;48.256;10.084;2023-05-17T02:09:35;8.40;49.20
21682;DHT22;11002;48.256;10.084;2023-05-17T02:12:02;8.50;48.60
21682;DHT22;11002;48.256;10.084;2023-05-17T02:14:30;8.30;49.70
21682;DHT22;11002;48.256;10.084;2023-05-17T02:16:59;8.30;48.10
21682;DHT22;11002;48.256;10.084;2023-05-17T02:19:26;8.20;50.10
21682;DHT22;11002;48.256;10.084;2023-05-17T02:21:53;8.20;50.30
21682;DHT22;11002;48.256;10.084;2023-05-17T02:24:21;8.20;51.70
21682;DHT22;11002;48.256;10.084;2023-05-17T02:26:48;8.40;50.90
21682;DHT22;11002;48.256;10.084;2023-05-17T02:29:16;8.30;51.70
21682;DHT22;11002;48.256;10.084;2023-05-17T02:31:43;8.40;51.90
21682;DHT22;11002;48.256;10.084;2023-05-17T02:34:12;8.30;51.80
21682;DHT22;11002;48.256;10.084;2023-05-17T02:36:39;8.40;51.90
21682;DHT22;11002;48.256;10.084;2023-05-17T02:39:11;8.20;51.70
21682;DHT22;11002;48.256;10.084;2023-05-17T02:41:39;8.20;51.70
21682;DHT22;11002;48.256;10.084;2023-05-17T02:44:06;8.10;51.60
21682;DHT22;11002;48.256;10.084;2023-05-17T02:46:33;8.20;51.70
21682;DHT22;11002;48.256;10.084;2023-05-17T02:49:00;8.20;51.70
21682;DHT22;11002;48.256;10.084;2023-05-17T02:51:29;8.10;51.60
21682;DHT22;11002;48.256;10.084;2023-05-17T02:53:57;8.10;51.60
21682;DHT22;11002;48.256;10.084;2023-05-17T02:56:24;8.20;51.70
21682;DHT22;11002;48.256;10.084;2023-05-17T02:58:52;8.10;51.60
21682;DHT22;11002;48.256;10.084;2023-05-17T03:01:20;8.20;51.70
21682;DHT22;11002;48.256;10.084;2023-05-17T03:03:47;8.00;51.50
21682;DHT22;11002;48.256;10.084;2023-05-17T03:06:15;8.00;51.50
21682;DHT22;11002;48.256;10.084;2023-05-17T03:08:43;8.10;51.60
21682;DHT22;11002;48.256;10.084;2023-05-17T03:11:11;8.10;51.60
21682;DHT22;11002;48.256;10.084;2023-05-17T03:13:38;8.00;51.50
21682;DHT22;11002;48.256;10.084;2023-05-17T03:16:06;8.00;51.50
21682;DHT22;11002;48.256;10.084;2023-05-17T03:18:34;8.20;52.40
21682;DHT22;11002;48.256;10.084;2023-05-17T03:21:02;8.10;51.60
21682;DHT22;11002;48.256;10.084;2023-05-17T03:23:29;8.00;51.50
21682;DHT22;11002;48.256;10.084;2023-05-17T03:26:03;7.90;51.40
21682;DHT22;11002;48.256;10.084;2023-05-17T03:28:35;8.10;51.60
21682;DHT22;11002;48.256;10.084;2023-05-17T03:31:03;7.90;51.40
21682;DHT22;11002;48.256;10.084;2023-05-17T03:33:32;7.80;51.40
21682;DHT22;11002;48.256;10.084;2023-05-17T03:36:00;7.80;52.00
21682;DHT22;11002;48.256;10.084;2023-05-17T03:38:27;7.90;51.50
21682;DHT22;11002;48.256;10.084;2023-05-17T03:40:55;7.80;51.30
21682;DHT22;11002;48.256;10.084;2023-05-17T03:43:24;7.80;51.40
21682;DHT22;11002;48.256;10.084;2023-05-17T03:45:52;7.70;51.30
21682;DHT22;11002;48.256;10.084;2023-05-17T03:48:19;7.90;51.50
21682;DHT22;11002;48.256;10.084;2023-05-17T03:50:46;7.90;51.50
21682;DHT22;11002;48.256;10.084;2023-05-17T03:53:14;7.70;51.20
21682;DHT22;11002;48.256;10.084;2023-05-17T03:55:41;7.70;51.30
21682;DHT22;11002;48.256;10.084;2023-05-17T03:58:09;7.60;52.00
21682;DHT22;11002;48.256;10.084;2023-05-17T04:00:37;7.70;51.20
21682;DHT22;11002;48.256;10.084;2023-05-17T04:03:11;7.80;51.30
21682;DHT22;11002;48.256;10.084;2023-05-17T04:05:39;7.70;51.20
21682;DHT22;11002;48.256;10.084;2023-05-17T04:08:08;7.60;53.30
21682;DHT22;11002;48.256;10.084;2023-05-17T04:10:35;7.60;52.10
21682;DHT22;11002;48.256;10.084;2023-05-17T04:13:06;7.70;51.60
21682;DHT22;11002;48.256;10.084;2023-05-17T04:15:36;7.90;51.50
21682;DHT22;11002;48.256;10.084;2023-05-17T04:18:05;7.70;51.30
21682;DHT22;11002;48.256;10.084;2023-05-17T04:20:32;7.70;51.30
21682;DHT22;11002;48.256;10.084;2023-05-17T04:23:00;7.70;51.20
21682;DHT22;11002;48.256;10.084;2023-05-17T04:25:30;7.70;52.20
21682;DHT22;11002;48.256;10.084;2023-05-17T04:27:57;7.90;52.80
21682;DHT22;11002;48.256;10.084;2023-05-17T04:30:25;8.00;52.80
21682;DHT22;11002;48.256;10.084;2023-05-17T04:32:54;8.00;51.50
21682;DHT22;11002;48.256;10.084;2023-05-17T04:35:21;8.00;51.50
21682;DHT22;11002;48.256;10.084;2023-05-17T04:37:51;7.90;51.50
21682;DHT22;11002;48.256;10.084;2023-05-17T04:40:21;7.80;51.30
21682;DHT22;11002;48.256;10.084;2023-05-17T04:42:49;7.70;50.20
21682;DHT22;11002;48.256;10.084;2023-05-17T04:45:17;7.80;51.30
21682;DHT22;11002;48.256;10.084;2023-05-17T04:47:45;7.70;50.70
21682;DHT22;11002;48.256;10.084;2023-05-17T04:50:18;7.70;49.90
21682;DHT22;11002;48.256;10.084;2023-05-17T04:52:46;8.00;50.80
21682;DHT22;11002;48.256;10.084;2023-05-17T04:55:13;7.80;51.30
21682;DHT22;11002;48.256;10.084;2023-05-17T04:57:42;7.90;49.80
21682;DHT22;11002;48.256;10.084;2023-05-17T05:00:13;8.00;50.00
21682;DHT22;11002;48.256;10.084;2023-05-17T05:02:43;7.90;48.80
21682;DHT22;11002;48.256;10.084;2023-05-17T05:05:12;7.90;48.00
21682;DHT22;11002;48.256;10.084;2023-05-17T05:07:43;8.00;49.80
21682;DHT22;11002;48.256;10.084;2023-05-17T05:10:12;8.10;49.00
21682;DHT22;11002;48.256;10.084;2023-05-17T05:12:40;8.40;48.20
21682;DHT22;11002;48.256;10.084;2023-05-17T05:15:09;8.10;47.70
21682;DHT22;11002;48.256;10.084;2023-05-17T05:17:38;8.10;48.50
21682;DHT22;11002;48.256;10.084;2023-05-17T05:20:07;8.10;48.90
21682;DHT22;11002;48.256;10.084;2023-05-17T05:22:35;8.40;48.20
21682;DHT22;11002;48.256;10.084;2023-05-17T05:25:04;8.40;47.70
21682;DHT22;11002;48.256;10.084;2023-05-17T05:27:32;8.50;49.30
21682;DHT22;11002;48.256;10.084;2023-05-17T05:30:00;8.30;47.90
21682;DHT22;11002;48.256;10.084;2023-05-17T05:32:30;8.40;48.40
21682;DHT22;11002;48.256;10.084;2023-05-17T05:34:57;8.40;47.20
21682;DHT22;11002;48.256;10.084;2023-05-17T05:37:25;8.40;47.90
21682;DHT22;11002;48.256;10.084;2023-05-17T05:39:53;8.40;48.40
21682;DHT22;11002;48.256;10.084;2023-05-17T05:42:21;8.40;47.80
21682;DHT22;11002;48.256;10.084;2023-05-17T05:44:49;8.40;48.00
21682;DHT22;11002;48.256;10.084;2023-05-17T05:47:19;8.70;48.40
21682;DHT22;11002;48.256;10.084;2023-05-17T05:49:47;8.60;48.20
21682;DHT22;11002;48.256;10.084;2023-05-17T05:52:14;8.60;49.00
21682;DHT22;11002;48.256;10.084;2023-05-17T05:54:43;8.50;46.70
21682;DHT22;11002;48.256;10.084;2023-05-17T05:57:10;8.60;47.90
21682;DHT22;11002;48.256;10.084;2023-05-17T05:59:41;8.60;47.40
21682;DHT22;11002;48.256;10.084;2023-05-17T06:02:08;8.50;47.50
21682;DHT22;11002;48.256;10.084;2023-05-17T06:04:36;8.80;47.60
21682;DHT22;11002;48.256;10.084;2023-05-17T06:07:03;8.80;46.80
21682;DHT22;11002;48.256;10.084;2023-05-17T06:09:31;8.80;47.80
21682;DHT22;11002;48.256;10.084;2023-05-17T06:11:58;8.80;47.80
21682;DHT22;11002;48.256;10.084;2023-05-17T06:14:25;8.90;47.30
21682;DHT22;11002;48.256;10.084;2023-05-17T06:16:54;8.80;45.90
21682;DHT22;11002;48.256;10.084;2023-05-17T06:19:21;8.80;47.60
21682;DHT22;11002;48.256;10.084;2023-05-17T06:21:49;9.00;46.60
21682;DHT22;11002;48.256;10.084;2023-05-17T06:24:16;9.10;47.10
21682;DHT22;11002;48.256;10.084;2023-05-17T06:26:44;9.10;46.10
21682;DHT22;11002;48.256;10.084;2023-05-17T06:29:12;9.20;46.20
21682;DHT22;11002;48.256;10.084;2023-05-17T06:31:39;9.10;46.10
21682;DHT22;11002;48.256;10.084;2023-05-17T06:34:08;9.30;45.30
21682;DHT22;11002;48.256;10.084;2023-05-17T06:36:35;9.30;46.30
21682;DHT22;11002;48.256;10.084;2023-05-17T06:39:02;9.30;46.30
21682;DHT22;11002;48.256;10.084;2023-05-17T06:41:30;9.40;46.40
21682;DHT22;11002;48.256;10.084;2023-05-17T06:43:57;9.60;46.60
21682;DHT22;11002;48.256;10.084;2023-05-17T06:46:24;9.60;45.30
21682;DHT22;11002;48.256;10.084;2023-05-17T06:48:51;9.70;46.60
21682;DHT22;11002;48.256;10.084;2023-05-17T06:51:20;10.00;45.50
21682;DHT22;11002;48.256;10.084;2023-05-17T06:53:47;10.20;43.50
21682;DHT22;11002;48.256;10.084;2023-05-17T06:56:15;10.40;41.80
21682;DHT22;11002;48.256;10.084;2023-05-17T06:58:42;10.20;42.60
21682;DHT22;11002;48.256;10.084;2023-05-17T07:01:09;10.40;42.10
21682;DHT22;11002;48.256;10.084;2023-05-17T07:03:37;10.80;43.60
21682;DHT22;11002;48.256;10.084;2023-05-17T07:06:05;11.10;40.50
21682;DHT22;11002;48.256;10.084;2023-05-17T07:08:34;11.50;40.90
21682;DHT22;11002;48.256;10.084;2023-05-17T07:11:01;11.80;39.90
21682;DHT22;11002;48.256;10.084;2023-05-17T07:13:32;12.10;37.70
21682;DHT22;11002;48.256;10.084;2023-05-17T07:15:59;12.30;37.50
21682;DHT22;11002;48.256;10.084;2023-05-17T07:18:26;12.50;37.80
21682;DHT22;11002;48.256;10.084;2023-05-17T07:20:54;12.70;37.30
21682;DHT22;11002;48.256;10.084;2023-05-17T07:23:21;12.90;35.50
21682;DHT22;11002;48.256;10.084;2023-05-17T07:25:50;13.00;34.30
21682;DHT22;11002;48.256;10.084;2023-05-17T07:28:17;13.10;35.20
21682;DHT22;11002;48.256;10.084;2023-05-17T07:30:44;13.20;34.90
21682;DHT22;11002;48.256;10.084;2023-05-17T07:33:12;13.30;33.50
21682;DHT22;11002;48.256;10.084;2023-05-17T07:35:39;13.30;35.70
21682;DHT22;11002;48.256;10.084;2023-05-17T07:38:06;13.40;36.00
21682;DHT22;11002;48.256;10.084;2023-05-17T07:40:35;13.60;32.10
21682;DHT22;11002;48.256;10.084;2023-05-17T07:43:04;14.00;33.30
21682;DHT22;11002;48.256;10.084;2023-05-17T07:45:31;14.00;31.50
21682;DHT22;11002;48.256;10.084;2023-05-17T07:47:58;13.80;29.80
21682;DHT22;11002;48.256;10.084;2023-05-17T07:50:26;14.20;31.70
21682;DHT22;11002;48.256;10.084;2023-05-17T07:52:53;14.40;30.20
21682;DHT22;11002;48.256;10.084;2023-05-17T07:55:21;14.10;30.00
21682;DHT22;11002;48.256;10.084;2023-05-17T07:57:48;14.30;30.10
21682;DHT22;11002;48.256;10.084;2023-05-17T08:00:19;14.70;30.50
21682;DHT22;11002;48.256;10.084;2023-05-17T08:02:47;15.30;28.20
21682;DHT22;11002;48.256;10.084;2023-05-17T08:05:14;15.40;28.10
21682;DHT22;11002;48.256;10.084;2023-05-17T08:07:42;15.70;28.50
21682;DHT22;11002;48.256;10.084;2023-05-17T08:10:10;15.90;27.50
21682;DHT22;11002;48.256;10.084;2023-05-17T08:12:37;15.50;27.90
21682;DHT22;11002;48.256;10.084;2023-05-17T08:15:05;14.60;28.80
21682;DHT22;11002;48.256;10.084;2023-05-17T08:17:34;14.20;30.00
21682;DHT22;11002;48.256;10.084;2023-05-17T08:20:01;14.50;32.40
21682;DHT22;11002;48.256;10.084;2023-05-17T08:22:30;15.30;28.20
21682;DHT22;11002;48.256;10.084;2023-05-17T08:24:58;15.70;28.30
21682;DHT22;11002;48.256;10.084;2023-05-17T08:27:25;15.80;26.60
21682;DHT22;11002;48.256;10.084;2023-05-17T08:29:55;16.10;26.10
21682;DHT22;11002;48.256;10.084;2023-05-17T08:32:23;16.50;24.40
21682;DHT22;11002;48.256;10.084;2023-05-17T08:34:52;16.90;27.00
21682;DHT22;11002;48.256;10.084;2023-05-17T08:37:19;17.00;24.90
21682;DHT22;11002;48.256;10.084;2023-05-17T08:39:46;17.20;25.30
21682;DHT22;11002;48.256;10.084;2023-05-17T08:42:16;17.70;21.90
21682;DHT22;11002;48.256;10.084;2023-05-17T08:44:46;17.20;23.70
21682;DHT22;11002;48.256;10.084;2023-05-17T08:47:14;16.60;23.20
21682;DHT22;11002;48.256;10.084;2023-05-17T08:49:54;16.20;23.50
21682;DHT22;11002;48.256;10.084;2023-05-17T08:52:28;16.50;24.70
21682;DHT22;11002;48.256;10.084;2023-05-17T08:54:55;17.00;23.50
21682;DHT22;11002;48.256;10.084;2023-05-17T08:57:23;16.40;22.70
21682;DHT22;11002;48.256;10.084;2023-05-17T08:59:53;15.90;24.90
21682;DHT22;11002;48.256;10.084;2023-05-17T09:02:22;16.20;24.90
21682;DHT22;11002;48.256;10.084;2023-05-17T09:04:51;17.00;24.40
21682;DHT22;11002;48.256;10.084;2023-05-17T09:07:20;17.70;21.90
21682;DHT22;11002;48.256;10.084;2023-05-17T09:09:50;17.60;21.80
21682;DHT22;11002;48.256;10.084;2023-05-17T09:12:18;17.20;23.30
21682;DHT22;11002;48.256;10.084;2023-05-17T09:14:45;17.00;21.40
21682;DHT22;11002;48.256;10.084;2023-05-17T09:17:13;16.30;20.90
21682;DHT22;11002;48.256;10.084;2023-05-17T09:19:43;16.20;23.00
21682;DHT22;11002;48.256;10.084;2023-05-17T09:22:13;16.20;22.00
21682;DHT22;11002;48.256;10.084;2023-05-17T09:24:41;16.20;23.90
21682;DHT22;11002;48.256;10.084;2023-05-17T09:27:13;17.10;24.00
21682;DHT22;11002;48.256;10.084;2023-05-17T09:29:44;17.50;22.30
21682;DHT22;11002;48.256;10.084;2023-05-17T09:32:13;17.80;21.90
21682;DHT22;11002;48.256;10.084;2023-05-17T09:34:41;18.40;20.60
21682;DHT22;11002;48.256;10.084;2023-05-17T09:37:16;18.70;20.60
21682;DHT22;11002;48.256;10.084;2023-05-17T09:39:45;19.20;19.70
21682;DHT22;11002;48.256;10.084;2023-05-17T09:42:14;19.40;18.50
21682;DHT22;11002;48.256;10.084;2023-05-17T09:44:46;18.40;15.10
21682;DHT22;11002;48.256;10.084;2023-05-17T09:47:23;17.90;18.00
21682;DHT22;11002;48.256;10.084;2023-05-17T09:49:51;18.50;16.50
21682;DHT22;11002;48.256;10.084;2023-05-17T09:52:20;18.70;16.90
21682;DHT22;11002;48.256;10.084;2023-05-17T09:54:54;18.40;14.50
21682;DHT22;11002;48.256;10.084;2023-05-17T09:57:22;18.70;17.40
21682;DHT22;11002;48.256;10.084;2023-05-17T09:59:53;19.30;13.20
21682;DHT22;11002;48.256;10.084;2023-05-17T10:02:25;19.40;12.00
21682;DHT22;11002;48.256;10.084;2023-05-17T10:04:55;19.30;11.90
21682;DHT22;11002;48.256;10.084;2023-05-17T10:07:25;19.50;13.40
21682;DHT22;11002;48.256;10.084;2023-05-17T10:09:54;20.00;14.30
21682;DHT22;11002;48.256;10.084;2023-05-17T10:12:23;20.60;14.40
21682;DHT22;11002;48.256;10.084;2023-05-17T10:14:52;20.30;9.90
21682;DHT22;11002;48.256;10.084;2023-05-17T10:17:21;20.00;13.50
21682;DHT22;11002;48.256;10.084;2023-05-17T10:19:50;20.20;15.00
21682;DHT22;11002;48.256;10.084;2023-05-17T10:22:20;20.20;12.50
21682;DHT22;11002;48.256;10.084;2023-05-17T10:24:50;19.60;10.60
21682;DHT22;11002;48.256;10.084;2023-05-17T10:27:21;19.30;13.60
21682;DHT22;11002;48.256;10.084;2023-05-17T10:29:49;19.70;16.40
21682;DHT22;11002;48.256;10.084;2023-05-17T10:32:20;20.50;12.70
21682;DHT22;11002;48.256;10.084;2023-05-17T10:34:52;20.90;13.00
21682;DHT22;11002;48.256;10.084;2023-05-17T10:37:20;20.50;12.70
21682;DHT22;11002;48.256;10.084;2023-05-17T10:39:50;19.40;13.70
21682;DHT22;11002;48.256;10.084;2023-05-17T10:42:20;18.60;15.40
21682;DHT22;11002;48.256;10.084;2023-05-17T10:44:48;18.20;15.90
21682;DHT22;11002;48.256;10.084;2023-05-17T10:47:15;18.10;14.80
21682;DHT22;11002;48.256;10.084;2023-05-17T10:49:43;18.20;15.80
21682;DHT22;11002;48.256;10.084;2023-05-17T10:52:14;18.10;16.30
21682;DHT22;11002;48.256;10.084;2023-05-17T10:54:43;18.10;16.00
21682;DHT22;11002;48.256;10.084;2023-05-17T10:57:20;18.20;16.80
21682;DHT22;11002;48.256;10.084;2023-05-17T10:59:56;17.80;17.40
21682;DHT22;11002;48.256;10.084;2023-05-17T11:02:24;17.60;19.40
21682;DHT22;11002;48.256;10.084;2023-05-17T11:04:52;17.60;18.20
21682;DHT22;11002;48.256;10.084;2023-05-17T11:07:22;17.60;18.50
21682;DHT22;11002;48.256;10.084;2023-05-17T11:09:53;17.70;17.90
21682;DHT22;11002;48.256;10.084;2023-05-17T11:12:29;17.60;17.00
21682;DHT22;11002;48.256;10.084;2023-05-17T11:14:59;17.70;17.40
21682;DHT22;11002;48.256;10.084;2023-05-17T11:17:32;18.40;13.20
21682;DHT22;11002;48.256;10.084;2023-05-17T11:20:08;18.30;14.00
21682;DHT22;11002;48.256;10.084;2023-05-17T11:22:38;18.70;14.80
21682;DHT22;11002;48.256;10.084;2023-05-17T11:25:08;18.90;15.80
21682;DHT22;11002;48.256;10.084;2023-05-17T11:27:45;19.60;19.40
21682;DHT22;11002;48.256;10.084;2023-05-17T11:30:17;19.60;12.10
21682;DHT22;11002;48.256;10.084;2023-05-17T11:32:46;19.20;14.30
21682;DHT22;11002;48.256;10.084;2023-05-17T11:35:16;19.10;13.50
21682;DHT22;11002;48.256;10.084;2023-05-17T11:37:44;19.10;14.30
21682;DHT22;11002;48.256;10.084;2023-05-17T11:40:12;19.40;15.30
21682;DHT22;11002;48.256;10.084;2023-05-17T11:42:41;19.60;13.10
21682;DHT22;11002;48.256;10.084;2023-05-17T11:45:09;18.80;14.60
21682;DHT22;11002;48.256;10.084;2023-05-17T11:47:40;18.30;14.80
21682;DHT22;11002;48.256;10.084;2023-05-17T11:50:08;18.60;17.00
21682;DHT22;11002;48.256;10.084;2023-05-17T11:52:39;19.20;15.60
21682;DHT22;11002;48.256;10.084;2023-05-17T11:55:07;19.50;16.30
21682;DHT22;11002;48.256;10.084;2023-05-17T11:57:36;20.10;18.00
21682;DHT22;11002;48.256;10.084;2023-05-17T12:00:05;20.10;12.50
21682;DHT22;11002;48.256;10.084;2023-05-17T12:02:40;19.50;14.60
21682;DHT22;11002;48.256;10.084;2023-05-17T12:05:08;18.70;16.90
21682;DHT22;11002;48.256;10.084;2023-05-17T12:07:35;18.20;14.10
21682;DHT22;11002;48.256;10.084;2023-05-17T12:10:03;18.40;16.00
21682;DHT22;11002;48.256;10.084;2023-05-17T12:12:31;18.90;14.50
21682;DHT22;11002;48.256;10.084;2023-05-17T12:14:58;19.00;15.80
21682;DHT22;11002;48.256;10.084;2023-05-17T12:17:29;18.80;14.50
21682;DHT22;11002;48.256;10.084;2023-05-17T12:20:07;18.00;14.10
21682;DHT22;11002;48.256;10.084;2023-05-17T12:22:50;17.40;16.00
21682;DHT22;11002;48.256;10.084;2023-05-17T12:25:18;17.50;15.50
21682;DHT22;11002;48.256;10.084;2023-05-17T12:27:47;17.50;15.20
21682;DHT22;11002;48.256;10.084;2023-05-17T12:30:16;16.50;15.80
21682;DHT22;11002;48.256;10.084;2023-05-17T12:32:43;15.80;18.00
21682;DHT22;11002;48.256;10.084;2023-05-17T12:35:13;16.00;20.70
21682;DHT22;11002;48.256;10.084;2023-05-17T12:37:40;16.70;19.80
21682;DHT22;11002;48.256;10.084;2023-05-17T12:40:08;16.80;16.20
21682;DHT22;11002;48.256;10.084;2023-05-17T12:42:36;16.10;17.60
21682;DHT22;11002;48.256;10.084;2023-05-17T12:45:06;16.20;19.70
21682;DHT22;11002;48.256;10.084;2023-05-17T12:47:37;16.60;16.80
21682;DHT22;11002;48.256;10.084;2023-05-17T12:50:05;17.00;18.30
21682;DHT22;11002;48.256;10.084;2023-05-17T12:52:34;17.50;18.80
21682;DHT22;11002;48.256;10.084;2023-05-17T12:55:02;18.20;18.70
21682;DHT22;11002;48.256;10.084;2023-05-17T12:57:33;18.00;17.10
21682;DHT22;11002;48.256;10.084;2023-05-17T13:00:05;17.40;16.70
21682;DHT22;11002;48.256;10.084;2023-05-17T13:02:34;17.40;19.70
21682;DHT22;11002;48.256;10.084;2023-05-17T13:05:13;17.20;15.30
21682;DHT22;11002;48.256;10.084;2023-05-17T13:07:42;16.40;15.70
21682;DHT22;11002;48.256;10.084;2023-05-17T13:10:22;15.60;17.40
21682;DHT22;11002;48.256;10.084;2023-05-17T13:12:55;15.50;20.40
21682;DHT22;11002;48.256;10.084;2023-05-17T13:15:27;15.90;20.70
21682;DHT22;11002;48.256;10.084;2023-05-17T13:17:54;16.10;20.80
21682;DHT22;11002;48.256;10.084;2023-05-17T13:20:22;16.30;20.60
21682;DHT22;11002;48.256;10.084;2023-05-17T13:22:50;16.30;21.00
21682;DHT22;11002;48.256;10.084;2023-05-17T13:25:18;16.30;21.00
21682;DHT22;11002;48.256;10.084;2023-05-17T13:27:46;16.10;21.90
21682;DHT22;11002;48.256;10.084;2023-05-17T13:30:14;16.00;21.90
21682;DHT22;11002;48.256;10.084;2023-05-17T13:32:42;16.10;20.80
21682;DHT22;11002;48.256;10.084;2023-05-17T13:35:10;15.80;20.60
21682;DHT22;11002;48.256;10.084;2023-05-17T13:37:37;15.80;20.60
21682;DHT22;11002;48.256;10.084;2023-05-17T13:40:07;15.70;21.20
21682;DHT22;11002;48.256;10.084;2023-05-17T13:42:34;15.70;21.40
21682;DHT22;11002;48.256;10.084;2023-05-17T13:45:03;15.60;22.30
21682;DHT22;11002;48.256;10.084;2023-05-17T13:47:30;15.80;23.90
21682;DHT22;11002;48.256;10.084;2023-05-17T13:49:58;16.10;22.60
21682;DHT22;11002;48.256;10.084;2023-05-17T13:52:26;16.40;22.80
21682;DHT22;11002;48.256;10.084;2023-05-17T13:54:53;16.60;22.20
21682;DHT22;11002;48.256;10.084;2023-05-17T13:57:22;16.80;22.40
21682;DHT22;11002;48.256;10.084;2023-05-17T13:59:49;16.40;18.00
21682;DHT22;11002;48.256;10.084;2023-05-17T14:02:17;16.20;20.90
21682;DHT22;11002;48.256;10.084;2023-05-17T14:04:44;15.80;20.60
21682;DHT22;11002;48.256;10.084;2023-05-17T14:07:11;15.70;20.50
21682;DHT22;11002;48.256;10.084;2023-05-17T14:09:39;15.70;22.90
21682;DHT22;11002;48.256;10.084;2023-05-17T14:12:06;15.90;24.40
21682;DHT22;11002;48.256;10.084;2023-05-17T14:14:35;16.10;25.00
21682;DHT22;11002;48.256;10.084;2023-05-17T14:17:03;16.20;24.80
21682;DHT22;11002;48.256;10.084;2023-05-17T14:19:30;16.30;25.40
21682;DHT22;11002;48.256;10.084;2023-05-17T14:21:57;16.30;23.80
21682;DHT22;11002;48.256;10.084;2023-05-17T14:24:24;16.30;23.40
21682;DHT22;11002;48.256;10.084;2023-05-17T14:26:52;16.10;23.20
21682;DHT22;11002;48.256;10.084;2023-05-17T14:29:19;16.20;25.60
21682;DHT22;11002;48.256;10.084;2023-05-17T14:31:48;16.40;25.50
21682;DHT22;11002;48.256;10.084;2023-05-17T14:34:15;16.60;25.00
21682;DHT22;11002;48.256;10.084;2023-05-17T14:36:42;16.50;23.20
21682;DHT22;11002;48.256;10.084;2023-05-17T14:39:10;16.30;22.20
21682;DHT22;11002;48.256;10.084;2023-05-17T14:41:37;16.00;24.30
21682;DHT22;11002;48.256;10.084;2023-05-17T14:44:05;15.80;24.80
21682;DHT22;11002;48.256;10.084;2023-05-17T14:46:32;15.50;23.50
21682;DHT22;11002;48.256;10.084;2023-05-17T14:49:01;15.20;24.70
21682;DHT22;11002;48.256;10.084;2023-05-17T14:51:28;15.10;25.50
21682;DHT22;11002;48.256;10.084;2023-05-17T14:53:56;15.20;25.50
21682;DHT22;11002;48.256;10.084;2023-05-17T14:56:23;15.50;27.50
21682;DHT22;11002;48.256;10.084;2023-05-17T14:58:51;15.70;23.00
21682;DHT22;11002;48.256;10.084;2023-05-17T15:01:18;15.50;23.80
21682;DHT22;11002;48.256;10.084;2023-05-17T15:03:45;15.60;23.80
21682;DHT22;11002;48.256;10.084;2023-05-17T15:06:14;15.60;25.20
21682;DHT22;11002;48.256;10.084;2023-05-17T15:08:42;15.60;25.80
21682;DHT22;11002;48.256;10.084;2023-05-17T15:11:09;15.40;25.70
21682;DHT22;11002;48.256;10.084;2023-05-17T15:13:36;15.40;27.50
21682;DHT22;11002;48.256;10.084;2023-05-17T15:16:04;15.50;27.80
21682;DHT22;11002;48.256;10.084;2023-05-17T15:18:31;15.40;25.70
21682;DHT22;11002;48.256;10.084;2023-05-17T15:21:00;15.30;25.00
21682;DHT22;11002;48.256;10.084;2023-05-17T15:23:29;15.10;27.50
21682;DHT22;11002;48.256;10.084;2023-05-17T15:25:56;15.10;27.40
21682;DHT22;11002;48.256;10.084;2023-05-17T15:28:23;14.90;27.30
21682;DHT22;11002;48.256;10.084;2023-05-17T15:30:59;14.90;27.80
21682;DHT22;11002;48.256;10.084;2023-05-17T15:33:26;15.10;27.10